createdAt,value
2019-02-10T00:01:20.396Z,3.00
2019-02-10T00:03:48.293Z,3.00
2019-02-10T00:06:24.274Z,3.00
2019-02-10T00:08:45.875Z,3.00
2019-02-10T00:11:13.836Z,3.00
2019-02-10T00:13:41.704Z,2.90
2019-02-10T00:16:09.579Z,2.90
2019-02-10T00:18:37.574Z,2.90
2019-02-10T00:21:05.467Z,2.90
2019-02-10T00:23:33.453Z,2.90
2019-02-10T00:26:01.272Z,2.90
2019-02-10T00:28:29.231Z,2.90
2019-02-10T00:30:57.112Z,2.90
2019-02-10T00:33:24.982Z,2.90
2019-02-10T00:35:52.837Z,2.90
2019-02-10T00:38:20.712Z,2.90
2019-02-10T00:40:48.554Z,2.90
2019-02-10T00:43:16.470Z,2.90
2019-02-10T00:45:44.419Z,2.90
2019-02-10T00:48:12.341Z,2.90
2019-02-10T00:50:40.274Z,2.90
2019-02-10T00:53:08.126Z,2.90
2019-02-10T00:55:36.082Z,2.90
2019-02-10T00:58:03.921Z,2.90
2019-02-10T01:00:31.825Z,3.00
2019-02-10T01:02:59.683Z,3.00
2019-02-10T01:05:27.592Z,3.00
2019-02-10T01:07:55.536Z,3.00
2019-02-10T01:10:24.801Z,2.90
2019-02-10T01:12:52.720Z,2.90
2019-02-10T01:15:20.764Z,2.90
2019-02-10T01:17:48.636Z,2.80
2019-02-10T01:20:16.608Z,2.80
2019-02-10T01:22:44.491Z,2.80
2019-02-10T01:25:12.362Z,2.80
2019-02-10T01:27:40.296Z,2.80
2019-02-10T01:30:08.128Z,2.80
2019-02-10T01:32:36.034Z,2.80
2019-02-10T01:35:04.002Z,2.70
2019-02-10T01:37:31.898Z,2.70
2019-02-10T01:39:59.742Z,2.70
2019-02-10T01:42:27.601Z,2.60
2019-02-10T01:44:55.612Z,2.60
2019-02-10T01:47:23.506Z,2.60
2019-02-10T01:49:51.484Z,2.70
2019-02-10T01:52:19.469Z,2.70
2019-02-10T01:54:47.791Z,2.50
2019-02-10T01:57:15.667Z,2.50
2019-02-10T01:59:43.568Z,2.50
2019-02-10T02:02:11.517Z,2.50
2019-02-10T02:04:39.413Z,2.40
2019-02-10T02:07:07.274Z,2.50
2019-02-10T02:09:35.130Z,2.50
2019-02-10T02:12:03.568Z,2.50
2019-02-10T02:14:31.471Z,2.40
2019-02-10T02:16:59.342Z,2.40
2019-02-10T02:19:27.308Z,2.40
2019-02-10T02:21:55.146Z,2.40
2019-02-10T02:24:23.030Z,2.40
2019-02-10T02:26:50.914Z,2.50
2019-02-10T02:29:18.846Z,2.50
2019-02-10T02:31:46.810Z,2.50
2019-02-10T02:34:14.675Z,2.50
2019-02-10T02:36:42.821Z,2.50
2019-02-10T02:39:10.658Z,2.60
2019-02-10T02:41:38.556Z,2.60
2019-02-10T02:44:06.432Z,2.60
2019-02-10T02:46:34.313Z,2.70
2019-02-10T02:49:02.189Z,2.70
2019-02-10T02:51:30.066Z,2.80
2019-02-10T02:53:57.921Z,2.80
2019-02-10T02:56:25.827Z,2.80
2019-02-10T02:58:53.750Z,2.80
2019-02-10T03:01:21.582Z,2.80
2019-02-10T03:03:49.530Z,2.90
2019-02-10T03:06:17.350Z,2.90
2019-02-10T03:08:45.231Z,2.90
2019-02-10T03:11:13.116Z,2.90
2019-02-10T03:13:41.011Z,2.90
2019-02-10T03:16:08.985Z,2.90
2019-02-10T03:18:36.968Z,2.90
2019-02-10T03:21:04.881Z,3.00
2019-02-10T03:23:32.859Z,3.00
2019-02-10T03:26:00.806Z,3.00
2019-02-10T03:28:28.687Z,3.00
2019-02-10T03:30:56.645Z,3.00
2019-02-10T03:33:24.507Z,3.00
2019-02-10T03:35:52.383Z,3.00
2019-02-10T03:38:20.255Z,3.00
2019-02-10T03:40:48.110Z,3.10
2019-02-10T03:43:16.007Z,3.10
2019-02-10T03:45:43.940Z,3.10
2019-02-10T03:48:11.888Z,3.10
2019-02-10T03:50:39.771Z,3.20
2019-02-10T03:53:07.723Z,3.20
2019-02-10T03:55:35.678Z,3.20
2019-02-10T03:58:03.639Z,3.20
2019-02-10T04:00:31.553Z,3.20
2019-02-10T04:02:59.443Z,3.20
2019-02-10T04:05:27.281Z,3.30
2019-02-10T04:07:55.143Z,3.30
2019-02-10T04:10:23.030Z,3.30
2019-02-10T04:12:50.997Z,3.40
2019-02-10T04:15:18.955Z,3.40
2019-02-10T04:17:46.834Z,3.50
2019-02-10T04:20:14.804Z,3.50
2019-02-10T04:22:42.689Z,3.60
2019-02-10T04:25:10.556Z,3.60
2019-02-10T04:27:38.408Z,3.60
2019-02-10T04:30:06.337Z,3.60
2019-02-10T04:32:34.365Z,3.70
2019-02-10T04:35:02.317Z,3.70
2019-02-10T04:37:30.464Z,3.80
2019-02-10T04:39:58.335Z,3.70
2019-02-10T04:42:26.214Z,3.80
2019-02-10T04:44:54.073Z,3.80
2019-02-10T04:47:21.989Z,3.90
2019-02-10T04:49:49.848Z,3.80
2019-02-10T04:52:17.741Z,3.80
2019-02-10T04:54:45.596Z,3.90
2019-02-10T04:57:13.587Z,3.90
2019-02-10T04:59:41.559Z,3.90
2019-02-10T05:02:09.634Z,4.00
2019-02-10T05:04:37.586Z,4.00
2019-02-10T05:07:05.539Z,4.00
2019-02-10T05:09:33.484Z,4.00
2019-02-10T05:12:01.334Z,4.10
2019-02-10T05:14:29.228Z,4.20
2019-02-10T05:16:57.112Z,4.40
2019-02-10T05:19:25.025Z,4.50
2019-02-10T05:21:52.984Z,4.70
2019-02-10T05:24:20.832Z,5.00
2019-02-10T05:26:48.699Z,5.10
2019-02-10T05:29:16.565Z,5.20
2019-02-10T05:31:44.557Z,5.30
2019-02-10T05:34:12.434Z,5.40
2019-02-10T05:36:40.280Z,5.40
2019-02-10T05:39:08.159Z,5.50
2019-02-10T05:41:36.112Z,5.60
2019-02-10T05:44:04.033Z,5.60
2019-02-10T05:46:31.960Z,5.60
2019-02-10T05:48:59.920Z,5.70
2019-02-10T05:51:27.772Z,5.80
2019-02-10T05:53:55.652Z,5.90
2019-02-10T05:56:23.531Z,5.90
2019-02-10T05:58:51.422Z,5.90
2019-02-10T06:01:19.275Z,6.00
2019-02-10T06:03:47.227Z,6.00
2019-02-10T06:06:15.067Z,6.00
2019-02-10T06:08:42.929Z,6.00
2019-02-10T06:11:10.830Z,6.00
2019-02-10T06:13:38.702Z,6.00
2019-02-10T06:16:06.738Z,6.00
2019-02-10T06:18:34.661Z,6.00
2019-02-10T06:21:02.600Z,6.00
2019-02-10T06:23:30.466Z,6.00
2019-02-10T06:25:58.303Z,6.10
2019-02-10T06:28:26.173Z,6.10
2019-02-10T06:30:54.036Z,6.10
2019-02-10T06:33:21.875Z,6.10
2019-02-10T06:35:49.707Z,6.20
2019-02-10T06:38:22.472Z,6.20
2019-02-10T06:40:47.151Z,6.30
2019-02-10T06:43:14.995Z,6.30
2019-02-10T06:45:42.926Z,6.30
2019-02-10T06:48:10.797Z,6.40
2019-02-10T06:50:38.601Z,6.40
2019-02-10T06:53:06.487Z,6.30
2019-02-10T06:55:34.332Z,6.30
2019-02-10T06:58:02.195Z,6.40
2019-02-10T07:00:49.167Z,6.40
2019-02-10T07:03:23.102Z,6.40
2019-02-10T07:05:51.062Z,6.40
2019-02-10T07:08:18.899Z,6.40
2019-02-10T07:10:46.710Z,6.40
2019-02-10T07:13:14.588Z,6.30
2019-02-10T07:15:42.437Z,6.40
2019-02-10T07:18:10.323Z,6.40
2019-02-10T07:20:38.202Z,6.40
2019-02-10T07:23:06.235Z,6.40
2019-02-10T07:25:34.117Z,6.40
2019-02-10T07:28:02.153Z,6.50
2019-02-10T07:30:30.180Z,6.50
2019-02-10T07:32:58.022Z,6.60
2019-02-10T07:35:25.909Z,6.50
2019-02-10T07:37:53.956Z,6.70
2019-02-10T07:40:21.866Z,6.70
2019-02-10T07:42:49.699Z,6.70
2019-02-10T07:45:17.554Z,6.70
2019-02-10T07:47:45.405Z,6.70
2019-02-10T07:50:13.278Z,6.80
2019-02-10T07:52:41.091Z,6.80
2019-02-10T07:55:08.925Z,6.90
2019-02-10T07:57:36.858Z,7.00
2019-02-10T08:00:04.745Z,7.10
2019-02-10T08:02:32.661Z,7.10
2019-02-10T08:05:00.542Z,7.10
2019-02-10T08:07:28.359Z,7.10
2019-02-10T08:09:56.385Z,7.20
2019-02-10T08:12:24.321Z,7.10
2019-02-10T08:14:52.181Z,7.10
2019-02-10T08:17:20.033Z,7.10
2019-02-10T08:19:47.867Z,7.10
2019-02-10T08:22:15.718Z,7.10
2019-02-10T08:24:43.540Z,7.10
2019-02-10T08:27:11.390Z,7.20
2019-02-10T08:29:39.290Z,7.20
2019-02-10T08:32:07.152Z,7.30
2019-02-10T08:34:34.980Z,7.30
2019-02-10T08:37:02.851Z,7.40
2019-02-10T08:39:30.746Z,7.40
2019-02-10T08:41:58.632Z,7.40
2019-02-10T08:44:26.558Z,7.40
2019-02-10T08:46:54.481Z,7.40
2019-02-10T08:49:22.323Z,7.40
2019-02-10T08:51:50.155Z,7.50
2019-02-10T08:54:18.066Z,7.50
2019-02-10T08:56:45.899Z,7.50
2019-02-10T08:59:13.768Z,7.60
2019-02-10T09:01:41.612Z,7.70
2019-02-10T09:04:09.477Z,7.60
2019-02-10T09:06:37.312Z,7.60
2019-02-10T09:09:05.477Z,7.60
2019-02-10T09:11:33.335Z,7.50
2019-02-10T09:14:01.226Z,7.50
2019-02-10T09:16:29.079Z,7.50
2019-02-10T09:18:56.928Z,7.50
2019-02-10T09:21:24.751Z,7.60
2019-02-10T09:23:52.666Z,7.60
2019-02-10T09:26:20.530Z,7.70
2019-02-10T09:28:48.391Z,7.80
2019-02-10T09:31:16.261Z,7.80
2019-02-10T09:33:44.121Z,7.80
2019-02-10T09:36:12.449Z,7.80
2019-02-10T09:38:40.278Z,7.80
2019-02-10T09:41:08.140Z,7.70
2019-02-10T09:43:36.027Z,7.70
2019-02-10T09:46:03.895Z,7.80
2019-02-10T09:48:31.789Z,7.80
2019-02-10T09:50:59.865Z,7.80
2019-02-10T09:53:27.924Z,7.80
2019-02-10T09:55:55.785Z,7.70
2019-02-10T09:58:23.662Z,7.70
2019-02-10T10:00:51.541Z,7.80
2019-02-10T10:03:19.415Z,7.90
2019-02-10T10:05:47.226Z,7.90
2019-02-10T10:08:15.083Z,7.90
2019-02-10T10:10:42.929Z,7.90
2019-02-10T10:13:10.772Z,7.90
2019-02-10T10:15:38.626Z,7.90
2019-02-10T10:18:06.536Z,7.90
2019-02-10T10:20:34.677Z,7.90
2019-02-10T10:23:02.597Z,8.00
2019-02-10T10:25:30.531Z,8.10
2019-02-10T10:27:58.374Z,8.00
2019-02-10T10:30:26.221Z,8.00
2019-02-10T10:32:54.083Z,8.10
2019-02-10T10:35:22.156Z,8.10
2019-02-10T10:37:50.357Z,8.10
2019-02-10T10:40:18.259Z,8.00
2019-02-10T10:42:46.067Z,7.90
2019-02-10T10:45:13.932Z,7.90
2019-02-10T10:47:41.784Z,7.90
2019-02-10T10:50:09.604Z,8.00
2019-02-10T10:52:37.469Z,8.00
2019-02-10T10:55:05.329Z,8.00
2019-02-10T10:57:33.274Z,7.90
2019-02-10T11:00:02.784Z,8.00
2019-02-10T11:02:30.871Z,7.90
2019-02-10T11:04:58.703Z,8.00
2019-02-10T11:07:26.507Z,8.10
2019-02-10T11:09:54.374Z,8.10
2019-02-10T11:12:22.226Z,8.10
2019-02-10T11:14:50.072Z,8.10
2019-02-10T11:17:17.927Z,8.10
2019-02-10T11:19:45.771Z,8.20
2019-02-10T11:22:13.584Z,8.10
2019-02-10T11:24:41.519Z,8.10
2019-02-10T11:27:09.450Z,8.10
2019-02-10T11:29:37.304Z,8.10
2019-02-10T11:32:05.170Z,8.10
2019-02-10T11:34:33.020Z,8.10
2019-02-10T11:37:00.829Z,8.10
2019-02-10T11:39:28.694Z,8.20
2019-02-10T11:41:56.527Z,8.20
2019-02-10T11:44:24.390Z,8.20
2019-02-10T11:46:52.237Z,8.20
2019-02-10T11:49:20.083Z,8.20
2019-02-10T11:51:47.916Z,8.20
2019-02-10T11:54:15.791Z,8.20
2019-02-10T11:56:43.639Z,8.20
2019-02-10T11:59:11.490Z,8.30
2019-02-10T12:01:39.450Z,8.20
2019-02-10T12:04:07.310Z,8.30
2019-02-10T12:06:35.144Z,8.20
2019-02-10T12:09:03.048Z,8.30
2019-02-10T12:11:30.902Z,8.30
2019-02-10T12:13:58.749Z,8.30
2019-02-10T12:16:26.585Z,8.30
2019-02-10T12:18:54.405Z,8.30
2019-02-10T12:21:22.240Z,8.20
2019-02-10T12:23:50.086Z,8.30
2019-02-10T12:26:17.939Z,8.30
2019-02-10T12:28:45.793Z,8.30
2019-02-10T12:31:13.634Z,8.30
2019-02-10T12:33:41.505Z,8.30
2019-02-10T12:36:09.409Z,8.20
2019-02-10T12:38:37.345Z,8.30
2019-02-10T12:41:05.193Z,8.30
2019-02-10T12:43:33.106Z,8.20
2019-02-10T12:46:00.947Z,8.20
2019-02-10T12:48:28.762Z,8.00
2019-02-10T12:50:56.589Z,7.90
2019-02-10T12:53:24.431Z,7.80
2019-02-10T12:55:52.299Z,7.80
2019-02-10T12:58:20.121Z,7.80
2019-02-10T13:00:47.965Z,7.80
2019-02-10T13:03:15.861Z,7.80
2019-02-10T13:05:43.688Z,7.80
2019-02-10T13:08:11.533Z,7.80
2019-02-10T13:10:39.366Z,7.80
2019-02-10T13:13:07.192Z,7.90
2019-02-10T13:15:35.025Z,7.90
2019-02-10T13:18:02.838Z,7.80
2019-02-10T13:20:30.664Z,7.90
2019-02-10T13:22:58.502Z,7.90
2019-02-10T13:25:26.400Z,7.90
2019-02-10T13:27:54.267Z,7.90
2019-02-10T13:30:22.155Z,7.80
2019-02-10T13:32:49.987Z,7.80
2019-02-10T13:35:17.827Z,7.90
2019-02-10T13:37:45.683Z,7.80
2019-02-10T13:40:16.628Z,7.80
2019-02-10T13:42:43.058Z,7.80
2019-02-10T13:45:10.877Z,7.70
2019-02-10T13:47:38.713Z,7.70
2019-02-10T13:50:06.558Z,7.60
2019-02-10T13:52:34.366Z,7.60
2019-02-10T13:55:02.193Z,7.50
2019-02-10T13:57:30.026Z,7.40
2019-02-10T13:59:57.829Z,7.50
2019-02-10T14:02:25.678Z,7.50
2019-02-10T14:04:53.509Z,7.50
2019-02-10T14:07:21.343Z,7.50
2019-02-10T14:09:49.178Z,7.40
2019-02-10T14:12:16.981Z,7.40
2019-02-10T14:14:44.804Z,7.40
2019-02-10T14:17:12.625Z,7.40
2019-02-10T14:19:40.427Z,7.40
2019-02-10T14:22:08.264Z,7.30
2019-02-10T14:24:36.126Z,7.30
2019-02-10T14:27:03.962Z,7.30
2019-02-10T14:29:31.766Z,7.30
2019-02-10T14:31:59.623Z,7.20
2019-02-10T14:34:27.442Z,7.10
2019-02-10T14:36:55.278Z,7.10
2019-02-10T14:39:23.114Z,7.10
2019-02-10T14:41:50.979Z,7.10
2019-02-10T14:44:18.791Z,7.20
2019-02-10T14:46:46.625Z,7.10
2019-02-10T14:49:14.441Z,7.10
2019-02-10T14:51:42.281Z,7.10
2019-02-10T14:54:10.204Z,7.10
2019-02-10T14:56:38.888Z,7.00
2019-02-10T14:59:06.742Z,7.10
2019-02-10T15:01:34.667Z,7.10
2019-02-10T15:04:02.469Z,7.00
2019-02-10T15:06:30.295Z,7.00
2019-02-10T15:08:58.129Z,7.00
2019-02-10T15:11:25.941Z,7.00
2019-02-10T15:13:53.774Z,6.90
2019-02-10T15:16:21.577Z,6.90
2019-02-10T15:18:49.395Z,6.90
2019-02-10T15:21:17.225Z,6.80
2019-02-10T15:23:45.090Z,6.90
2019-02-10T15:26:12.946Z,6.80
2019-02-10T15:28:40.813Z,6.70
2019-02-10T15:31:08.695Z,6.70
2019-02-10T15:33:36.487Z,6.70
2019-02-10T15:36:04.316Z,6.60
2019-02-10T15:38:32.146Z,6.60
2019-02-10T15:40:59.972Z,6.60
2019-02-10T15:43:27.812Z,6.50
2019-02-10T15:45:55.633Z,6.50
2019-02-10T15:48:23.443Z,6.50
2019-02-10T15:50:51.262Z,6.60
2019-02-10T15:53:19.189Z,6.60
2019-02-10T15:55:47.021Z,6.60
2019-02-10T15:58:14.862Z,6.50
2019-02-10T16:00:42.689Z,6.40
2019-02-10T16:03:10.546Z,6.30
2019-02-10T16:05:38.411Z,6.20
2019-02-10T16:08:06.234Z,6.20
2019-02-10T16:10:34.067Z,6.20
2019-02-10T16:13:01.896Z,6.20
2019-02-10T16:15:29.748Z,6.10
2019-02-10T16:17:57.553Z,6.10
2019-02-10T16:20:25.399Z,6.00
2019-02-10T16:22:53.343Z,6.00
2019-02-10T16:25:21.158Z,5.90
2019-02-10T16:27:49.032Z,5.90
2019-02-10T16:30:16.870Z,5.90
2019-02-10T16:32:49.974Z,5.90
2019-02-10T16:35:14.442Z,5.90
2019-02-10T16:37:42.297Z,5.90
2019-02-10T16:40:10.160Z,5.80
2019-02-10T16:42:38.007Z,5.80
2019-02-10T16:45:05.867Z,5.80
2019-02-10T16:47:33.713Z,5.90
2019-02-10T16:50:02.978Z,5.90
2019-02-10T16:52:30.988Z,5.90
2019-02-10T16:54:58.919Z,6.00
2019-02-10T16:57:26.720Z,6.10
2019-02-10T16:59:54.549Z,6.10
2019-02-10T17:02:22.363Z,6.00
2019-02-10T17:04:50.218Z,6.10
2019-02-10T17:07:18.047Z,6.00
2019-02-10T17:09:45.927Z,6.00
2019-02-10T17:12:13.759Z,5.90
2019-02-10T17:14:41.680Z,5.90
2019-02-10T17:17:09.531Z,5.90
2019-02-10T17:19:37.350Z,6.00
2019-02-10T17:22:05.335Z,5.90
2019-02-10T17:24:35.011Z,5.90
2019-02-10T17:27:02.920Z,5.90
2019-02-10T17:29:30.715Z,5.80
2019-02-10T17:31:58.518Z,5.80
2019-02-10T17:34:26.328Z,5.80
2019-02-10T17:36:54.165Z,5.80
2019-02-10T17:39:21.992Z,5.90
2019-02-10T17:41:49.857Z,5.90
2019-02-10T17:44:17.641Z,5.90
2019-02-10T17:46:45.450Z,5.90
2019-02-10T17:49:13.280Z,5.90
2019-02-10T17:51:41.211Z,5.80
2019-02-10T17:54:09.074Z,5.80
2019-02-10T17:56:36.977Z,5.80
2019-02-10T17:59:04.793Z,5.80
2019-02-10T18:01:32.597Z,5.70
2019-02-10T18:04:00.431Z,5.70
2019-02-10T18:06:28.262Z,5.60
2019-02-10T18:08:56.098Z,5.60
2019-02-10T18:11:30.941Z,5.60
2019-02-10T18:13:53.478Z,5.70
2019-02-10T18:16:39.193Z,5.70
2019-02-10T18:19:12.433Z,5.60
2019-02-10T18:21:51.608Z,5.60
2019-02-10T18:24:25.537Z,5.60
2019-02-10T18:26:58.697Z,5.50
2019-02-10T18:29:44.494Z,5.50
2019-02-10T18:32:19.427Z,5.40
2019-02-10T18:35:17.923Z,5.40
2019-02-10T18:37:56.759Z,5.40
2019-02-10T18:40:46.524Z,5.40
2019-02-10T18:43:36.454Z,5.30
2019-02-10T18:46:20.648Z,5.30
2019-02-10T18:49:06.112Z,5.30
2019-02-10T18:51:43.523Z,5.30
2019-02-10T18:54:18.129Z,5.30
2019-02-10T18:57:23.116Z,5.20
2019-02-10T19:00:08.594Z,5.20
2019-02-10T19:03:06.918Z,5.30
2019-02-10T19:05:46.503Z,5.30
2019-02-10T19:08:48.750Z,5.30
2019-02-10T19:11:35.670Z,5.30
2019-02-10T19:14:25.354Z,5.30
2019-02-10T19:17:19.739Z,5.30
2019-02-10T19:20:15.572Z,5.30
2019-02-10T19:23:11.309Z,5.30
2019-02-10T19:26:00.377Z,5.30
2019-02-10T19:28:37.078Z,5.30
2019-02-10T19:31:22.614Z,5.30
2019-02-10T19:34:07.942Z,5.30
2019-02-10T19:36:54.860Z,5.30
2019-02-10T19:39:48.288Z,5.30
2019-02-10T19:42:41.230Z,5.30
2019-02-10T19:45:32.891Z,5.40
2019-02-10T19:48:19.784Z,5.50
2019-02-10T19:51:01.722Z,5.50
2019-02-10T19:53:41.493Z,5.50
2019-02-10T19:56:31.893Z,5.50
2019-02-10T19:59:16.323Z,5.40
2019-02-10T20:02:12.207Z,5.40
2019-02-10T20:04:57.786Z,5.40
2019-02-10T20:07:50.226Z,5.30
2019-02-10T20:10:37.113Z,5.30
2019-02-10T20:13:29.556Z,5.30
2019-02-10T20:16:04.792Z,5.30
2019-02-10T20:18:54.033Z,5.30
2019-02-10T20:21:49.354Z,5.20
2019-02-10T20:24:35.695Z,5.20
2019-02-10T20:27:29.737Z,5.20
2019-02-10T20:30:07.580Z,5.10
2019-02-10T20:32:52.706Z,5.10
2019-02-10T20:35:48.399Z,5.20
2019-02-10T20:38:37.575Z,5.20
2019-02-10T20:41:20.389Z,5.20
2019-02-10T20:44:01.028Z,5.20
2019-02-10T20:47:00.124Z,5.30
2019-02-10T20:49:38.447Z,5.20
2019-02-10T20:52:23.062Z,5.30
2019-02-10T20:55:00.912Z,5.20
2019-02-10T20:57:56.795Z,5.20
2019-02-10T21:00:35.288Z,5.20
2019-02-10T21:03:21.080Z,5.10
2019-02-10T21:05:55.467Z,5.10
2019-02-10T21:09:00.304Z,5.20
2019-02-10T21:11:56.217Z,5.20
2019-02-10T21:14:38.687Z,5.10
2019-02-10T21:17:20.080Z,5.10
2019-02-10T21:20:06.071Z,5.10
2019-02-10T21:23:11.462Z,5.10
2019-02-10T21:26:00.811Z,5.10
2019-02-10T21:28:34.970Z,5.00
2019-02-10T21:31:22.188Z,5.00
2019-02-10T21:33:58.584Z,5.00
2019-02-10T21:36:48.145Z,5.00
2019-02-10T21:39:22.533Z,5.00
2019-02-10T21:42:07.708Z,4.90
2019-02-10T21:45:00.182Z,5.00
2019-02-10T21:47:55.553Z,5.00
2019-02-10T21:50:23.152Z,5.00
2019-02-10T21:52:51.058Z,4.90
2019-02-10T21:55:18.876Z,4.90
2019-02-10T21:57:46.734Z,4.90
2019-02-10T22:00:14.628Z,4.90
2019-02-10T22:02:42.449Z,4.80
2019-02-10T22:05:10.289Z,4.80
2019-02-10T22:07:38.102Z,4.80
2019-02-10T22:10:05.941Z,4.90
2019-02-10T22:12:37.040Z,4.90
2019-02-10T22:15:03.506Z,4.90
2019-02-10T22:17:31.432Z,4.90
2019-02-10T22:19:59.263Z,4.80
2019-02-10T22:22:27.094Z,4.80
2019-02-10T22:24:54.938Z,4.80
2019-02-10T22:27:22.822Z,4.80
2019-02-10T22:29:50.715Z,4.80
2019-02-10T22:32:19.677Z,4.70
2019-02-10T22:34:47.775Z,4.70
2019-02-10T22:37:15.618Z,4.70
2019-02-10T22:39:43.465Z,4.70
2019-02-10T22:42:11.295Z,4.70
2019-02-10T22:44:39.217Z,4.80
2019-02-10T22:47:07.040Z,4.80
2019-02-10T22:49:34.875Z,4.80
2019-02-10T22:52:02.714Z,4.80
2019-02-10T22:54:30.545Z,4.80
2019-02-10T22:56:58.358Z,4.70
2019-02-10T22:59:26.236Z,4.70
2019-02-10T23:01:54.104Z,4.70
2019-02-10T23:04:21.948Z,4.70
2019-02-10T23:06:49.743Z,4.60
2019-02-10T23:09:24.214Z,4.70
2019-02-10T23:11:51.527Z,4.70
2019-02-10T23:14:19.380Z,4.60
2019-02-10T23:16:47.208Z,4.70
2019-02-10T23:19:15.071Z,4.70
2019-02-10T23:21:42.895Z,4.70
2019-02-10T23:24:10.771Z,4.70
2019-02-10T23:26:38.611Z,4.60
2019-02-10T23:29:06.460Z,4.70
2019-02-10T23:31:34.341Z,4.60
2019-02-10T23:34:02.185Z,4.70
2019-02-10T23:36:30.018Z,4.60
2019-02-10T23:38:57.844Z,4.60
2019-02-10T23:41:25.694Z,4.70
2019-02-10T23:43:53.550Z,4.70
2019-02-10T23:46:21.514Z,4.70
2019-02-10T23:48:49.414Z,4.80
2019-02-10T23:51:17.294Z,4.70
2019-02-10T23:53:45.093Z,4.70
2019-02-10T23:56:12.943Z,4.60
2019-02-10T23:58:40.906Z,4.70
